createdAt,value
2023-03-05T00:01:11.151Z,100923.03
2023-03-05T00:03:37.788Z,100930.66
2023-03-05T00:06:04.870Z,100926.31
2023-03-05T00:08:32.161Z,100926.22
2023-03-05T00:11:03.275Z,100922.03
2023-03-05T00:13:30.211Z,100921.69
2023-03-05T00:15:56.902Z,100923.19
2023-03-05T00:18:23.980Z,100912.78
2023-03-05T00:20:50.795Z,100919.50
2023-03-05T00:23:17.325Z,100917.97
2023-03-05T00:25:44.287Z,100914.53
2023-03-05T00:28:10.768Z,100916.50
2023-03-05T00:30:37.253Z,100916.28
2023-03-05T00:33:03.919Z,100918.28
2023-03-05T00:35:30.554Z,100915.75
2023-03-05T00:37:57.834Z,100912.56
2023-03-05T00:40:24.408Z,100906.56
2023-03-05T00:42:50.944Z,100909.84
2023-03-05T00:45:17.446Z,100903.94
2023-03-05T00:47:43.929Z,100908.00
2023-03-05T00:50:11.115Z,100898.53
2023-03-05T00:52:37.662Z,100900.84
2023-03-05T00:55:04.497Z,100903.13
2023-03-05T00:57:31.412Z,100899.53
2023-03-05T00:59:57.953Z,100895.38
2023-03-05T01:02:25.978Z,100892.88
2023-03-05T01:04:52.522Z,100898.31
2023-03-05T01:07:19.017Z,100890.50
2023-03-05T01:09:45.585Z,100888.06
2023-03-05T01:12:12.079Z,100891.50
2023-03-05T01:14:38.529Z,100887.66
2023-03-05T01:17:05.204Z,100884.03
2023-03-05T01:19:31.864Z,100886.31
2023-03-05T01:21:59.088Z,100878.91
2023-03-05T01:24:25.697Z,100878.31
2023-03-05T01:26:52.182Z,100875.09
2023-03-05T01:29:18.706Z,100879.13
2023-03-05T01:31:45.335Z,100873.63
2023-03-05T01:34:11.979Z,100864.06
2023-03-05T01:36:41.194Z,100864.19
2023-03-05T01:39:08.270Z,100870.41
2023-03-05T01:41:35.434Z,100863.50
2023-03-05T01:44:02.322Z,100865.81
2023-03-05T01:46:34.932Z,100861.97
2023-03-05T01:49:06.593Z,100855.00
2023-03-05T01:51:40.113Z,100861.06
2023-03-05T01:54:08.861Z,100853.66
2023-03-05T01:56:35.944Z,100853.28
2023-03-05T01:59:05.171Z,100850.22
2023-03-05T02:01:37.144Z,100853.34
2023-03-05T02:04:04.066Z,100855.03
2023-03-05T02:06:30.795Z,100851.00
2023-03-05T02:08:57.280Z,100842.56
2023-03-05T02:11:23.808Z,100839.94
2023-03-05T02:13:50.402Z,100839.38
2023-03-05T02:16:17.022Z,100837.72
2023-03-05T02:18:43.702Z,100826.78
2023-03-05T02:21:11.472Z,100827.28
2023-03-05T02:23:38.994Z,100817.81
2023-03-05T02:26:08.657Z,100813.50
2023-03-05T02:29:02.922Z,100814.75
2023-03-05T02:31:31.095Z,100818.66
2023-03-05T02:33:57.669Z,100814.88
2023-03-05T02:36:25.048Z,100810.06
2023-03-05T02:38:52.861Z,100807.44
2023-03-05T02:41:19.602Z,100804.22
2023-03-05T02:43:46.099Z,100806.53
2023-03-05T02:46:12.669Z,100799.19
2023-03-05T02:48:39.395Z,100797.34
2023-03-05T02:51:07.840Z,100794.09
2023-03-05T02:53:34.637Z,100794.09
2023-03-05T02:56:01.322Z,100797.66
2023-03-05T02:58:27.868Z,100795.66
2023-03-05T03:00:54.391Z,100795.66
2023-03-05T03:03:21.101Z,100787.88
2023-03-05T03:05:47.711Z,100782.28
2023-03-05T03:08:15.055Z,100785.69
2023-03-05T03:10:41.635Z,100777.16
2023-03-05T03:13:08.234Z,100784.41
2023-03-05T03:15:34.797Z,100776.63
2023-03-05T03:18:01.313Z,100773.56
2023-03-05T03:20:27.885Z,100771.56
2023-03-05T03:22:54.513Z,100778.69
2023-03-05T03:25:23.012Z,100783.25
2023-03-05T03:27:49.808Z,100774.69
2023-03-05T03:30:16.565Z,100769.53
2023-03-05T03:32:43.415Z,100778.88
2023-03-05T03:35:11.327Z,100780.34
2023-03-05T03:37:38.265Z,100774.47
2023-03-05T03:40:06.078Z,100778.25
2023-03-05T03:42:33.244Z,100768.97
2023-03-05T03:45:00.492Z,100776.28
2023-03-05T03:47:27.028Z,100775.34
2023-03-05T03:49:54.655Z,100769.97
2023-03-05T03:52:22.907Z,100771.56
2023-03-05T03:54:52.296Z,100771.19
2023-03-05T03:57:19.331Z,100766.72
2023-03-05T03:59:46.089Z,100769.19
2023-03-05T04:02:13.122Z,100762.56
2023-03-05T04:04:39.768Z,100775.44
2023-03-05T04:07:06.370Z,100765.91
2023-03-05T04:09:32.933Z,100758.22
2023-03-05T04:11:59.381Z,100758.69
2023-03-05T04:14:26.601Z,100756.28
2023-03-05T04:16:53.563Z,100761.59
2023-03-05T04:19:20.155Z,100754.84
2023-03-05T04:21:46.774Z,100753.00
2023-03-05T04:24:13.317Z,100761.59
2023-03-05T04:26:39.886Z,100757.69
2023-03-05T04:29:06.429Z,100753.03
2023-03-05T04:31:32.992Z,100761.47
2023-03-05T04:34:00.035Z,100754.00
2023-03-05T04:36:26.651Z,100756.09
2023-03-05T04:38:53.174Z,100757.53
2023-03-05T04:41:19.706Z,100758.19
2023-03-05T04:43:46.224Z,100755.53
2023-03-05T04:46:12.796Z,100750.28
2023-03-05T04:48:39.448Z,100752.66
2023-03-05T04:51:06.051Z,100741.78
2023-03-05T04:53:32.735Z,100748.47
2023-03-05T04:56:01.505Z,100743.66
2023-03-05T04:58:28.131Z,100740.47
2023-03-05T05:00:54.691Z,100741.88
2023-03-05T05:03:21.213Z,100744.16
2023-03-05T05:05:54.624Z,100740.56
2023-03-05T05:08:21.139Z,100727.63
2023-03-05T05:10:55.827Z,100737.41
2023-03-05T05:13:22.317Z,100732.59
2023-03-05T05:15:48.879Z,100730.97
2023-03-05T05:18:15.353Z,100731.13
2023-03-05T05:20:42.219Z,100725.63
2023-03-05T05:23:08.765Z,100721.59
2023-03-05T05:25:35.284Z,100724.22
2023-03-05T05:28:01.898Z,100723.56
2023-03-05T05:30:28.479Z,100721.47
2023-03-05T05:32:54.984Z,100715.78
2023-03-05T05:35:21.575Z,100710.81
2023-03-05T05:37:48.108Z,100712.09
2023-03-05T05:40:14.824Z,100716.81
2023-03-05T05:42:41.359Z,100702.66
2023-03-05T05:45:08.806Z,100708.44
2023-03-05T05:47:35.322Z,100702.69
2023-03-05T05:50:01.885Z,100699.81
2023-03-05T05:52:28.482Z,100696.56
2023-03-05T05:54:55.029Z,100694.63
2023-03-05T05:57:21.564Z,100696.38
2023-03-05T05:59:48.065Z,100690.19
2023-03-05T06:02:14.821Z,100697.00
2023-03-05T06:04:41.339Z,100696.50
2023-03-05T06:07:08.561Z,100690.44
2023-03-05T06:09:36.380Z,100690.22
2023-03-05T06:12:03.206Z,100682.16
2023-03-05T06:14:29.866Z,100682.34
2023-03-05T06:16:56.484Z,100684.50
2023-03-05T06:19:23.101Z,100685.13
2023-03-05T06:21:49.645Z,100680.63
2023-03-05T06:24:16.331Z,100679.72
2023-03-05T06:26:42.893Z,100684.94
2023-03-05T06:29:09.475Z,100677.47
2023-03-05T06:31:37.314Z,100678.44
2023-03-05T06:34:04.154Z,100684.19
2023-03-05T06:36:30.866Z,100679.75
2023-03-05T06:38:58.380Z,100677.16
2023-03-05T06:41:27.732Z,100683.19
2023-03-05T06:43:55.502Z,100687.50
2023-03-05T06:46:28.171Z,100684.09
2023-03-05T06:48:55.880Z,100681.94
2023-03-05T06:51:28.547Z,100686.94
2023-03-05T06:53:55.950Z,100693.84
2023-03-05T06:56:23.049Z,100688.09
2023-03-05T06:58:51.412Z,100694.72
2023-03-05T07:01:19.313Z,100692.03
2023-03-05T07:03:49.453Z,100691.50
2023-03-05T07:06:16.070Z,100688.38
2023-03-05T07:08:44.780Z,100690.81
2023-03-05T07:11:13.519Z,100702.53
2023-03-05T07:13:40.064Z,100698.25
2023-03-05T07:16:08.466Z,100690.84
2023-03-05T07:18:35.587Z,100696.97
2023-03-05T07:21:04.827Z,100700.66
2023-03-05T07:23:31.719Z,100697.19
2023-03-05T07:26:01.828Z,100693.66
2023-03-05T07:28:28.381Z,100699.06
2023-03-05T07:30:57.703Z,100694.56
2023-03-05T07:33:25.448Z,100694.63
2023-03-05T07:35:51.954Z,100695.22
2023-03-05T07:38:18.719Z,100691.31
2023-03-05T07:40:45.483Z,100689.41
2023-03-05T07:43:12.329Z,100691.16
2023-03-05T07:45:44.003Z,100687.44
2023-03-05T07:48:16.541Z,100689.84
2023-03-05T07:50:43.156Z,100699.16
2023-03-05T07:53:10.401Z,100698.91
2023-03-05T07:55:45.670Z,100689.94
2023-03-05T07:58:13.859Z,100698.72
2023-03-05T08:00:40.858Z,100691.72
2023-03-05T08:03:07.586Z,100688.69
2023-03-05T08:05:34.298Z,100688.63
2023-03-05T08:08:00.894Z,100690.91
2023-03-05T08:10:27.498Z,100685.47
2023-03-05T08:12:54.056Z,100684.31
2023-03-05T08:15:20.710Z,100677.59
2023-03-05T08:17:47.353Z,100673.47
2023-03-05T08:20:14.151Z,100681.94
2023-03-05T08:22:40.691Z,100683.53
2023-03-05T08:25:08.109Z,100674.34
2023-03-05T08:27:42.493Z,100675.97
2023-03-05T08:30:12.450Z,100672.56
2023-03-05T08:32:39.145Z,100674.22
2023-03-05T08:35:06.713Z,100679.34
2023-03-05T08:37:33.644Z,100674.53
2023-03-05T08:40:00.124Z,100668.78
2023-03-05T08:42:26.693Z,100670.84
2023-03-05T08:44:53.272Z,100669.00
2023-03-05T08:47:20.432Z,100666.97
2023-03-05T08:49:47.390Z,100654.50
2023-03-05T08:52:14.050Z,100670.69
2023-03-05T08:54:40.680Z,100665.75
2023-03-05T08:57:07.194Z,100659.78
2023-03-05T08:59:34.213Z,100657.66
2023-03-05T09:02:02.030Z,100653.47
2023-03-05T09:04:28.933Z,100659.88
2023-03-05T09:06:56.875Z,100655.81
2023-03-05T09:09:23.905Z,100649.50
2023-03-05T09:11:52.005Z,100652.13
2023-03-05T09:14:19.163Z,100644.38
2023-03-05T09:16:46.135Z,100640.31
2023-03-05T09:19:14.973Z,100638.16
2023-03-05T09:21:42.580Z,100622.97
2023-03-05T09:24:09.893Z,100639.34
2023-03-05T09:26:36.649Z,100640.97
2023-03-05T09:29:07.531Z,100643.88
2023-03-05T09:31:36.368Z,100633.97
2023-03-05T09:34:03.118Z,100631.50
2023-03-05T09:36:30.685Z,100627.59
2023-03-05T09:38:57.543Z,100626.53
2023-03-05T09:41:57.553Z,100626.06
2023-03-05T09:44:38.504Z,100627.44
2023-03-05T09:47:29.631Z,100628.22
2023-03-05T09:50:04.860Z,100620.63
2023-03-05T09:52:36.984Z,100622.00
2023-03-05T09:55:09.794Z,100620.34
2023-03-05T09:57:42.444Z,100619.84
2023-03-05T10:00:40.344Z,100610.97
2023-03-05T10:03:16.083Z,100603.84
2023-03-05T10:06:04.628Z,100598.66
2023-03-05T10:08:53.941Z,100603.19
2023-03-05T10:11:36.361Z,100608.22
2023-03-05T10:14:04.384Z,100604.66
2023-03-05T10:16:46.701Z,100604.16
2023-03-05T10:19:50.549Z,100596.91
2023-03-05T10:22:54.963Z,100601.75
2023-03-05T10:25:30.425Z,100601.03
2023-03-05T10:28:05.820Z,100594.69
2023-03-05T10:30:38.967Z,100584.56
2023-03-05T10:33:20.253Z,100576.69
2023-03-05T10:36:48.124Z,100583.38
2023-03-05T10:39:39.969Z,100578.06
2023-03-05T10:42:11.004Z,100574.16
2023-03-05T10:44:43.307Z,100572.13
2023-03-05T10:47:22.867Z,100568.38
2023-03-05T10:49:54.794Z,100569.28
2023-03-05T10:52:36.648Z,100573.00
2023-03-05T10:55:17.782Z,100557.63
2023-03-05T10:57:44.611Z,100561.44
2023-03-05T11:00:19.447Z,100558.03
2023-03-05T11:03:01.658Z,100551.63
2023-03-05T11:05:39.734Z,100553.19
2023-03-05T11:08:33.985Z,100554.75
2023-03-05T11:11:21.816Z,100555.28
2023-03-05T11:13:48.310Z,100554.91
2023-03-05T11:16:40.076Z,100545.53
2023-03-05T11:19:15.822Z,100548.25
2023-03-05T11:21:44.062Z,100545.84
2023-03-05T11:24:18.803Z,100547.44
2023-03-05T11:26:56.559Z,100545.09
2023-03-05T11:29:27.000Z,100548.88
2023-03-05T11:31:54.164Z,100544.69
2023-03-05T11:34:20.633Z,100543.06
2023-03-05T11:36:56.966Z,100533.84
2023-03-05T11:39:25.169Z,100531.38
2023-03-05T11:42:05.114Z,100518.69
2023-03-05T11:44:54.707Z,100516.53
2023-03-05T11:47:21.203Z,100511.56
2023-03-05T11:49:50.759Z,100509.84
2023-03-05T11:52:32.125Z,100507.22
2023-03-05T11:55:07.179Z,100504.72
2023-03-05T11:57:43.550Z,100507.34
2023-03-05T12:00:18.994Z,100497.31
2023-03-05T12:02:49.634Z,100490.59
2023-03-05T12:05:17.037Z,100490.59
2023-03-05T12:07:48.814Z,100483.28
2023-03-05T12:10:26.224Z,100477.16
2023-03-05T12:13:12.101Z,100472.19
2023-03-05T12:15:46.399Z,100462.25
2023-03-05T12:18:45.265Z,100459.41
2023-03-05T12:21:18.296Z,100446.28
2023-03-05T12:23:59.071Z,100443.63
2023-03-05T12:26:54.251Z,100445.28
2023-03-05T12:29:43.271Z,100443.53
2023-03-05T12:32:25.551Z,100433.81
2023-03-05T12:35:06.169Z,100428.41
2023-03-05T12:37:32.663Z,100426.97
2023-03-05T12:40:25.559Z,100431.28
2023-03-05T12:42:53.369Z,100430.16
2023-03-05T12:45:36.810Z,100421.34
2023-03-05T12:48:03.600Z,100422.91
2023-03-05T12:50:30.148Z,100422.16
2023-03-05T12:53:13.801Z,100411.69
2023-03-05T12:55:45.332Z,100416.06
2023-03-05T12:58:17.080Z,100408.22
2023-03-05T13:00:49.328Z,100405.75
2023-03-05T13:03:30.805Z,100396.13
2023-03-05T13:06:00.441Z,100391.72
2023-03-05T13:08:30.327Z,100385.94
2023-03-05T13:11:00.898Z,100388.59
2023-03-05T13:13:29.349Z,100392.34
2023-03-05T13:15:56.911Z,100388.38
2023-03-05T13:18:25.811Z,100387.31
2023-03-05T13:21:04.664Z,100391.06
2023-03-05T13:23:32.481Z,100378.78
2023-03-05T13:26:18.697Z,100391.31
2023-03-05T13:29:11.279Z,100384.41
2023-03-05T13:31:59.526Z,100376.78
2023-03-05T13:34:41.086Z,100371.53
2023-03-05T13:37:18.708Z,100362.72
2023-03-05T13:40:00.579Z,100364.19
2023-03-05T13:42:31.349Z,100357.97
2023-03-05T13:45:05.856Z,100356.38
2023-03-05T13:47:35.300Z,100359.75
2023-03-05T13:50:21.761Z,100340.69
2023-03-05T13:52:48.312Z,100343.34
2023-03-05T13:55:17.062Z,100346.69
2023-03-05T13:57:46.553Z,100337.47
2023-03-05T14:00:30.307Z,100331.59
2023-03-05T14:03:00.941Z,100330.25
2023-03-05T14:05:28.449Z,100321.53
2023-03-05T14:07:56.640Z,100326.69
2023-03-05T14:10:38.101Z,100319.44
2023-03-05T14:13:19.084Z,100315.91
2023-03-05T14:16:24.118Z,100301.94
2023-03-05T14:18:59.355Z,100296.78
2023-03-05T14:21:25.962Z,100300.09
2023-03-05T14:23:54.816Z,100296.47
2023-03-05T14:26:37.612Z,100286.34
2023-03-05T14:29:15.416Z,100292.44
2023-03-05T14:31:56.180Z,100288.34
2023-03-05T14:34:33.180Z,100289.97
2023-03-05T14:37:06.296Z,100284.63
2023-03-05T14:39:46.632Z,100278.53
2023-03-05T14:42:38.999Z,100286.06
2023-03-05T14:45:14.077Z,100269.03
2023-03-05T14:47:41.140Z,100265.41
2023-03-05T14:50:10.512Z,100273.63
2023-03-05T14:52:37.217Z,100266.41
2023-03-05T14:55:04.962Z,100266.56
2023-03-05T14:57:32.263Z,100252.41
2023-03-05T14:59:59.012Z,100247.09
2023-03-05T15:02:26.917Z,100252.47
2023-03-05T15:04:53.674Z,100247.25
2023-03-05T15:07:28.945Z,100241.47
2023-03-05T15:09:56.405Z,100236.53
2023-03-05T15:12:24.647Z,100234.00
2023-03-05T15:14:52.915Z,100231.31
2023-03-05T15:17:32.523Z,100229.16
2023-03-05T15:19:59.102Z,100236.63
2023-03-05T15:22:25.621Z,100225.56
2023-03-05T15:24:52.291Z,100223.84
2023-03-05T15:27:18.996Z,100214.16
2023-03-05T15:29:45.625Z,100219.09
2023-03-05T15:32:12.250Z,100219.84
2023-03-05T15:34:38.860Z,100220.31
2023-03-05T15:37:05.479Z,100216.78
2023-03-05T15:39:32.061Z,100200.41
2023-03-05T15:41:59.086Z,100205.34
2023-03-05T15:44:26.388Z,100198.19
2023-03-05T15:46:53.327Z,100197.00
2023-03-05T15:49:20.272Z,100195.19
2023-03-05T15:51:46.821Z,100196.31
2023-03-05T15:54:13.372Z,100200.78
2023-03-05T15:56:40.687Z,100193.56
2023-03-05T15:59:09.287Z,100196.00
2023-03-05T16:01:39.126Z,100185.97
2023-03-05T16:04:06.276Z,100195.50
2023-03-05T16:06:34.103Z,100187.63
2023-03-05T16:09:03.736Z,100178.41
2023-03-05T16:11:33.984Z,100181.47
2023-03-05T16:14:04.208Z,100171.44
2023-03-05T16:16:32.745Z,100179.03
2023-03-05T16:19:00.427Z,100172.63
2023-03-05T16:21:27.067Z,100170.63
2023-03-05T16:23:53.536Z,100170.16
2023-03-05T16:26:20.094Z,100160.38
2023-03-05T16:28:46.707Z,100155.50
2023-03-05T16:31:13.368Z,100157.56
2023-03-05T16:33:39.940Z,100159.13
2023-03-05T16:36:25.102Z,100153.91
2023-03-05T16:38:55.085Z,100157.88
2023-03-05T16:41:24.378Z,100149.75
2023-03-05T16:43:53.504Z,100157.66
2023-03-05T16:46:20.317Z,100147.47
2023-03-05T16:48:46.958Z,100144.06
2023-03-05T16:51:13.718Z,100151.78
2023-03-05T16:53:40.837Z,100148.00
2023-03-05T16:56:09.090Z,100151.28
2023-03-05T16:58:37.153Z,100152.38
2023-03-05T17:01:08.898Z,100145.50
2023-03-05T17:03:35.513Z,100139.41
2023-03-05T17:06:02.065Z,100142.81
2023-03-05T17:08:28.556Z,100134.78
2023-03-05T17:10:55.104Z,100141.53
2023-03-05T17:13:21.624Z,100148.69
2023-03-05T17:15:48.143Z,100142.97
2023-03-05T17:18:14.696Z,100139.91
2023-03-05T17:20:41.350Z,100135.09
2023-03-05T17:23:07.882Z,100141.38
2023-03-05T17:25:36.946Z,100137.94
2023-03-05T17:28:03.624Z,100144.22
2023-03-05T17:30:33.213Z,100133.75
2023-03-05T17:32:59.842Z,100130.28
2023-03-05T17:35:26.464Z,100137.94
2023-03-05T17:37:55.173Z,100137.88
2023-03-05T17:40:22.849Z,100140.84
2023-03-05T17:42:49.824Z,100149.09
2023-03-05T17:45:16.811Z,100139.94
2023-03-05T17:47:43.732Z,100137.78
2023-03-05T17:50:12.240Z,100135.22
2023-03-05T17:52:41.016Z,100135.88
2023-03-05T17:55:10.535Z,100134.34
2023-03-05T17:57:41.289Z,100135.34
2023-03-05T18:00:29.686Z,100127.66
2023-03-05T18:02:58.056Z,100126.66
2023-03-05T18:05:25.463Z,100127.66
2023-03-05T18:07:52.439Z,100118.78
2023-03-05T18:10:21.159Z,100128.22
2023-03-05T18:12:50.615Z,100124.25
2023-03-05T18:15:19.046Z,100122.03
2023-03-05T18:17:45.836Z,100121.41
2023-03-05T18:20:31.073Z,100118.63
2023-03-05T18:22:58.985Z,100107.66
2023-03-05T18:25:30.837Z,100116.59
2023-03-05T18:27:59.546Z,100110.06
2023-03-05T18:30:26.466Z,100104.19
2023-03-05T18:32:53.130Z,100105.41
2023-03-05T18:35:19.837Z,100099.88
2023-03-05T18:37:46.472Z,100098.69
2023-03-05T18:40:18.702Z,100096.03
2023-03-05T18:42:45.821Z,100095.03
2023-03-05T18:45:17.763Z,100087.78
2023-03-05T18:47:44.584Z,100087.59
2023-03-05T18:50:14.846Z,100087.41
2023-03-05T18:52:42.753Z,100089.63
2023-03-05T18:55:18.842Z,100079.88
2023-03-05T18:57:45.482Z,100079.72
2023-03-05T19:00:20.574Z,100086.56
2023-03-05T19:02:47.348Z,100075.75
2023-03-05T19:05:14.971Z,100083.47
2023-03-05T19:07:42.390Z,100087.06
2023-03-05T19:10:10.559Z,100092.19
2023-03-05T19:12:45.383Z,100080.91
2023-03-05T19:15:13.207Z,100082.63
2023-03-05T19:17:39.881Z,100081.78
2023-03-05T19:20:07.803Z,100077.66
2023-03-05T19:22:34.435Z,100076.13
2023-03-05T19:25:01.662Z,100071.91
2023-03-05T19:27:28.508Z,100068.88
2023-03-05T19:29:55.081Z,100066.91
2023-03-05T19:32:21.936Z,100078.38
2023-03-05T19:34:48.522Z,100062.06
2023-03-05T19:37:15.871Z,100062.81
2023-03-05T19:39:42.625Z,100057.63
2023-03-05T19:42:09.247Z,100054.69
2023-03-05T19:44:36.027Z,100057.38
2023-03-05T19:47:03.021Z,100058.13
2023-03-05T19:49:29.895Z,100054.75
2023-03-05T19:51:56.454Z,100056.03
2023-03-05T19:54:23.068Z,100050.00
2023-03-05T19:56:51.814Z,100056.16
2023-03-05T19:59:21.047Z,100047.25
2023-03-05T20:01:48.756Z,100047.81
2023-03-05T20:04:18.284Z,100037.94
2023-03-05T20:06:44.845Z,100042.31
2023-03-05T20:09:11.473Z,100040.06
2023-03-05T20:11:38.318Z,100030.06
2023-03-05T20:14:05.771Z,100036.72
2023-03-05T20:16:37.692Z,100031.09
2023-03-05T20:19:06.997Z,100025.50
2023-03-05T20:21:41.380Z,100022.81
2023-03-05T20:24:11.781Z,100028.13
2023-03-05T20:26:41.182Z,100025.44
2023-03-05T20:29:09.013Z,100021.88
2023-03-05T20:31:37.189Z,100024.38
2023-03-05T20:34:06.181Z,100024.75
2023-03-05T20:36:34.801Z,100022.72
2023-03-05T20:39:03.294Z,100017.72
2023-03-05T20:41:31.066Z,100019.91
2023-03-05T20:43:57.845Z,100018.81
2023-03-05T20:46:30.446Z,100005.69
2023-03-05T20:48:59.054Z,99998.72
2023-03-05T20:51:29.903Z,100010.81
2023-03-05T20:54:02.272Z,100014.59
2023-03-05T20:56:32.275Z,100005.00
2023-03-05T20:59:02.763Z,100006.44
2023-03-05T21:01:31.130Z,99998.34
2023-03-05T21:03:57.668Z,100005.41
2023-03-05T21:06:25.222Z,100001.66
2023-03-05T21:08:51.820Z,99993.94
2023-03-05T21:11:18.859Z,99994.88
2023-03-05T21:13:45.472Z,100001.09
2023-03-05T21:16:16.682Z,99994.34
2023-03-05T21:18:43.260Z,99992.16
2023-03-05T21:21:09.813Z,99977.94
2023-03-05T21:23:37.082Z,99985.31
2023-03-05T21:26:04.180Z,99981.66
2023-03-05T21:28:31.777Z,99983.59
2023-03-05T21:30:58.548Z,99977.25
2023-03-05T21:33:28.391Z,99970.34
2023-03-05T21:35:57.873Z,99974.97
2023-03-05T21:38:25.597Z,99973.94
2023-03-05T21:40:53.869Z,99969.63
2023-03-05T21:43:22.510Z,99959.56
2023-03-05T21:45:52.511Z,99964.03
2023-03-05T21:48:20.231Z,99953.44
2023-03-05T21:50:46.953Z,99952.63
2023-03-05T21:53:14.644Z,99945.66
2023-03-05T21:55:54.149Z,99939.69
2023-03-05T21:58:20.671Z,99937.13
2023-03-05T22:00:47.215Z,99938.53
2023-03-05T22:03:13.714Z,99929.53
2023-03-05T22:05:42.753Z,99921.56
2023-03-05T22:08:09.292Z,99923.38
2023-03-05T22:10:35.974Z,99908.34
2023-03-05T22:13:12.459Z,99908.25
2023-03-05T22:15:53.972Z,99904.00
2023-03-05T22:18:29.510Z,99893.00
2023-03-05T22:20:57.806Z,99882.22
2023-03-05T22:23:29.806Z,99889.19
2023-03-05T22:26:00.715Z,99885.66
2023-03-05T22:28:27.551Z,99883.03
2023-03-05T22:30:54.705Z,99886.94
2023-03-05T22:33:23.058Z,99873.81
2023-03-05T22:35:50.252Z,99883.47
2023-03-05T22:38:16.949Z,99863.09
2023-03-05T22:40:46.340Z,99864.81
2023-03-05T22:43:14.041Z,99865.56
2023-03-05T22:45:40.879Z,99862.72
2023-03-05T22:48:09.877Z,99860.78
2023-03-05T22:50:41.396Z,99861.94
2023-03-05T22:53:08.314Z,99853.72
2023-03-05T22:55:39.307Z,99851.28
2023-03-05T22:58:05.969Z,99839.13
2023-03-05T23:00:32.558Z,99846.56
2023-03-05T23:02:59.173Z,99843.44
2023-03-05T23:05:25.739Z,99841.41
2023-03-05T23:07:52.333Z,99843.13
2023-03-05T23:10:24.883Z,99835.56
2023-03-05T23:12:53.943Z,99832.81
2023-03-05T23:15:26.730Z,99830.19
2023-03-05T23:17:53.591Z,99832.91
2023-03-05T23:20:22.873Z,99830.00
2023-03-05T23:22:52.741Z,99832.38
2023-03-05T23:25:20.416Z,99826.97
2023-03-05T23:27:46.921Z,99824.16
2023-03-05T23:30:21.384Z,99807.81
2023-03-05T23:32:47.859Z,99816.94
2023-03-05T23:35:16.768Z,99810.63
2023-03-05T23:37:43.352Z,99818.19
2023-03-05T23:40:14.947Z,99815.25
2023-03-05T23:42:42.512Z,99804.19
2023-03-05T23:45:11.302Z,99808.59
2023-03-05T23:47:38.101Z,99807.22
2023-03-05T23:50:06.972Z,99803.66
2023-03-05T23:52:36.291Z,99802.06
2023-03-05T23:55:03.085Z,99800.22
2023-03-05T23:57:30.183Z,99797.59
2023-03-05T23:59:56.736Z,99791.53
